Time;durP1;ratioP1;P1;durP2;ratioP2;P2;SDS_P1;SDS_P2;PMS_P1;PMS_P2;Temp;Humidity;BMP_temperature;BMP_pressure;BME280_temperature;BME280_humidity;BME280_pressure;Samples;Min_cycle;Max_cycle;Signal;HPM_P1;HPM_P2
2022/01/08 00:00:35;;;;;;;;;0.00;0.00;;;;;;;;5003317;28;11485;-78
2022/01/08 00:03:03;;;;;;;;;0.00;0.00;;;;;;;;5006447;28;11633;-77
2022/01/08 00:05:30;;;;;;;;;0.00;0.00;;;;;;;;5004829;28;11615;-75
2022/01/08 00:07:57;;;;;;;;;1.00;0.00;;;;;;;;5002854;28;11557;-74
2022/01/08 00:10:26;;;;;;;;;0.00;0.00;;;;;;;;5006661;28;11662;-75
2022/01/08 00:12:56;;;;;;;;;0.00;0.00;;;;;;;;5004024;28;11544;-77
2022/01/08 00:15:23;;;;;;;;;0.00;0.00;;;;;;;;5004517;28;11564;-76
2022/01/08 00:17:51;;;;;;;;;0.00;0.00;;;;;;;;5003594;28;11545;-76
2022/01/08 00:20:18;;;;;;;;;0.00;0.00;;;;;;;;5004664;28;11549;-75
2022/01/08 00:22:45;;;;;;;;;0.00;0.00;;;;;;;;5004451;28;11549;-76
2022/01/08 00:25:13;;;;;;;;;0.00;0.00;;;;;;;;5003973;28;11623;-76
2022/01/08 00:27:41;;;;;;;;;0.00;0.00;;;;;;;;5005747;28;11681;-77
2022/01/08 00:30:10;;;;;;;;;0.00;0.00;;;;;;;;5002127;28;12297;-78
2022/01/08 00:32:37;;;;;;;;;0.00;0.00;;;;;;;;5004962;28;11571;-77
2022/01/08 00:35:05;;;;;;;;;0.00;0.00;;;;;;;;5003299;28;11533;-78
2022/01/08 00:37:33;;;;;;;;;0.00;0.00;;;;;;;;5005391;28;11579;-77
2022/01/08 00:40:00;;;;;;;;;1.00;0.00;;;;;;;;5003228;28;11560;-77
2022/01/08 00:42:28;;;;;;;;;1.00;1.00;;;;;;;;5007428;28;11594;-75
2022/01/08 00:44:56;;;;;;;;;0.00;0.00;;;;;;;;5004599;28;11563;-76
2022/01/08 00:47:24;;;;;;;;;1.00;1.00;;;;;;;;5003573;28;11568;-75
2022/01/08 00:49:51;;;;;;;;;0.00;0.00;;;;;;;;5004903;28;11578;-75
2022/01/08 00:52:18;;;;;;;;;1.00;1.00;;;;;;;;5003481;28;11558;-78
2022/01/08 00:54:45;;;;;;;;;0.00;0.00;;;;;;;;5003521;28;11723;-77
2022/01/08 00:57:13;;;;;;;;;0.75;0.75;;;;;;;;5001612;28;11538;-78
2022/01/08 00:59:40;;;;;;;;;0.75;0.75;;;;;;;;5004494;28;11557;-76
2022/01/08 01:02:09;;;;;;;;;0.00;0.00;;;;;;;;5002018;28;11489;-76
2022/01/08 01:04:37;;;;;;;;;0.00;0.00;;;;;;;;5004436;28;11554;-76
2022/01/08 01:07:05;;;;;;;;;0.00;0.00;;;;;;;;5005073;28;11532;-79
2022/01/08 01:09:32;;;;;;;;;0.00;0.00;;;;;;;;5001651;28;11675;-76
2022/01/08 01:12:00;;;;;;;;;0.00;0.00;;;;;;;;5004277;28;12478;-77
2022/01/08 01:14:28;;;;;;;;;1.00;1.00;;;;;;;;5003128;28;12389;-76
2022/01/08 01:16:55;;;;;;;;;1.00;1.00;;;;;;;;5003737;28;12311;-76
2022/01/08 01:19:24;;;;;;;;;0.50;0.50;;;;;;;;5003612;28;11649;-76
2022/01/08 01:21:53;;;;;;;;;1.00;1.00;;;;;;;;5005142;28;11677;-76
2022/01/08 01:24:24;;;;;;;;;1.00;1.00;;;;;;;;5003640;28;11549;-76
2022/01/08 01:27:14;;;;;;;;;1.00;1.00;;;;;;;;5002062;28;11536;-77
2022/01/08 01:29:51;;;;;;;;;3.75;2.00;;;;;;;;5004091;28;12335;-76
2022/01/08 01:43:28;;;;;;;;;1.00;1.00;;;;;;;;5002408;28;11682;-77
2022/01/08 01:48:40;;;;;;;;;1.00;1.00;;;;;;;;5000962;28;11500;-77
2022/01/08 01:51:16;;;;;;;;;1.00;1.00;;;;;;;;5002228;28;11561;-76
2022/01/08 01:53:43;;;;;;;;;0.25;0.25;;;;;;;;5006519;28;11536;-76
2022/01/08 01:56:11;;;;;;;;;2.00;2.00;;;;;;;;5003262;28;11691;-78
2022/01/08 01:58:38;;;;;;;;;1.00;1.00;;;;;;;;5003218;28;11547;-75
2022/01/08 02:01:05;;;;;;;;;0.00;0.00;;;;;;;;5004005;28;11529;-78
2022/01/08 02:03:32;;;;;;;;;0.00;0.00;;;;;;;;5004686;28;11563;-76
2022/01/08 02:06:00;;;;;;;;;0.25;0.25;;;;;;;;5002394;28;11539;-77
2022/01/08 02:08:29;;;;;;;;;1.00;1.00;;;;;;;;5008009;28;12130;-78
2022/01/08 02:10:57;;;;;;;;;1.00;1.00;;;;;;;;5000557;28;11558;-77
2022/01/08 02:13:25;;;;;;;;;1.00;1.00;;;;;;;;5003420;28;11598;-77
2022/01/08 02:15:54;;;;;;;;;2.00;0.25;;;;;;;;5000962;28;11677;-76
2022/01/08 02:18:22;;;;;;;;;1.00;1.00;;;;;;;;5002248;28;11633;-76
2022/01/08 02:20:51;;;;;;;;;1.75;1.75;;;;;;;;5002938;28;11522;-78
2022/01/08 02:23:18;;;;;;;;;3.25;1.00;;;;;;;;5003019;28;12378;-75
2022/01/08 02:25:45;;;;;;;;;1.50;1.50;;;;;;;;5003672;28;12369;-75
2022/01/08 02:28:13;;;;;;;;;1.00;1.00;;;;;;;;5002128;28;12447;-77
2022/01/08 02:30:40;;;;;;;;;1.00;1.00;;;;;;;;5001252;28;11497;-75
2022/01/08 02:33:07;;;;;;;;;4.00;1.00;;;;;;;;5001582;28;11519;-74
2022/01/08 02:35:35;;;;;;;;;1.50;1.50;;;;;;;;5001861;28;11626;-75
2022/01/08 02:38:04;;;;;;;;;1.00;1.00;;;;;;;;4995047;28;11638;-75
2022/01/08 02:40:31;;;;;;;;;1.00;1.00;;;;;;;;5002225;28;11553;-74
2022/01/08 02:43:03;;;;;;;;;1.25;1.25;;;;;;;;5009435;28;11535;-76
2022/01/08 02:45:32;;;;;;;;;1.50;1.50;;;;;;;;5002086;28;11538;-77
2022/01/08 02:48:00;;;;;;;;;1.75;1.00;;;;;;;;5001511;28;11556;-77
2022/01/08 02:50:27;;;;;;;;;1.00;1.00;;;;;;;;5001890;28;11670;-78
2022/01/08 02:52:54;;;;;;;;;1.00;1.00;;;;;;;;5002824;28;11674;-77
2022/01/08 02:55:23;;;;;;;;;2.50;0.50;;;;;;;;5002377;28;11581;-75
2022/01/08 02:57:50;;;;;;;;;1.00;1.00;;;;;;;;5001648;28;11545;-78
2022/01/08 03:00:20;;;;;;;;;2.00;1.00;;;;;;;;5003519;28;11552;-79
2022/01/08 03:02:50;;;;;;;;;2.00;2.00;;;;;;;;5010498;28;11599;-78
2022/01/08 03:05:18;;;;;;;;;1.00;1.00;;;;;;;;5005618;28;11594;-75
2022/01/08 03:07:46;;;;;;;;;1.00;1.00;;;;;;;;5005177;28;11602;-76
2022/01/08 03:10:16;;;;;;;;;2.00;2.00;;;;;;;;5006368;28;11594;-77
2022/01/08 03:12:45;;;;;;;;;0.75;0.75;;;;;;;;5010944;28;11550;-75
2022/01/08 03:15:14;;;;;;;;;0.50;0.50;;;;;;;;5006136;28;11553;-80
2022/01/08 03:17:42;;;;;;;;;1.00;1.00;;;;;;;;5012137;28;11517;-77
2022/01/08 03:20:13;;;;;;;;;1.25;1.25;;;;;;;;5005492;28;11564;-79
2022/01/08 03:22:41;;;;;;;;;2.00;2.00;;;;;;;;5004825;28;11585;-80
2022/01/08 03:25:10;;;;;;;;;4.00;2.00;;;;;;;;5004790;28;11713;-77
2022/01/08 03:27:38;;;;;;;;;1.00;1.00;;;;;;;;5005635;28;11651;-79
2022/01/08 03:30:09;;;;;;;;;1.00;1.00;;;;;;;;5004656;28;11556;-78
2022/01/08 03:32:36;;;;;;;;;1.00;1.00;;;;;;;;5008925;28;11624;-78
2022/01/08 03:35:04;;;;;;;;;4.25;2.00;;;;;;;;5005469;28;11617;-78
2022/01/08 03:37:32;;;;;;;;;2.00;2.00;;;;;;;;5003407;28;11685;-76
2022/01/08 03:39:59;;;;;;;;;1.00;1.00;;;;;;;;5002841;28;11550;-79
2022/01/08 03:42:27;;;;;;;;;1.00;1.00;;;;;;;;5003507;28;11646;-80
2022/01/08 03:44:54;;;;;;;;;1.50;1.50;;;;;;;;5004655;28;11559;-76
2022/01/08 03:47:28;;;;;;;;;1.50;1.50;;;;;;;;5004006;28;11588;-76
2022/01/08 03:49:56;;;;;;;;;1.75;1.75;;;;;;;;5003393;28;11537;-81
2022/01/08 03:52:24;;;;;;;;;0.00;0.00;;;;;;;;5005512;28;11559;-77
2022/01/08 03:54:51;;;;;;;;;1.00;1.00;;;;;;;;5002957;28;11565;-76
2022/01/08 03:57:19;;;;;;;;;1.50;1.50;;;;;;;;5005347;28;12977;-75
2022/01/08 03:59:46;;;;;;;;;2.00;1.00;;;;;;;;5003838;28;11613;-74
2022/01/08 04:02:13;;;;;;;;;1.00;1.00;;;;;;;;5004863;28;12341;-77
2022/01/08 04:04:42;;;;;;;;;3.00;1.00;;;;;;;;5003784;28;12955;-78
2022/01/08 04:07:09;;;;;;;;;1.00;1.00;;;;;;;;5009699;28;12868;-77
2022/01/08 04:09:37;;;;;;;;;2.00;2.00;;;;;;;;5004478;28;11552;-76
2022/01/08 04:12:06;;;;;;;;;4.50;2.00;;;;;;;;5005228;28;13024;-78
2022/01/08 04:14:47;;;;;;;;;3.50;1.00;;;;;;;;5005102;28;11537;-76
2022/01/08 04:17:16;;;;;;;;;4.00;1.00;;;;;;;;5004530;28;11625;-78
2022/01/08 04:19:45;;;;;;;;;4.00;1.75;;;;;;;;5008640;28;11602;-77
2022/01/08 04:22:13;;;;;;;;;1.75;1.75;;;;;;;;5003502;28;11546;-75
2022/01/08 04:24:42;;;;;;;;;1.00;1.00;;;;;;;;5005264;28;11565;-75
2022/01/08 04:27:09;;;;;;;;;1.00;1.00;;;;;;;;5003742;28;12350;-76
2022/01/08 04:29:37;;;;;;;;;1.75;1.75;;;;;;;;5003927;28;11598;-76
2022/01/08 04:32:04;;;;;;;;;1.00;1.00;;;;;;;;5004520;28;11489;-78
2022/01/08 04:34:32;;;;;;;;;1.00;1.00;;;;;;;;5003507;28;11679;-77
2022/01/08 04:37:00;;;;;;;;;1.75;1.00;;;;;;;;4999374;28;12216;-76
2022/01/08 04:39:28;;;;;;;;;1.00;1.00;;;;;;;;5003534;28;11553;-78
2022/01/08 04:41:56;;;;;;;;;2.00;2.00;;;;;;;;5010811;28;11535;-78
2022/01/08 04:44:23;;;;;;;;;2.00;2.00;;;;;;;;5002957;28;11701;-75
2022/01/08 04:46:51;;;;;;;;;4.25;2.00;;;;;;;;5002398;28;11686;-76
2022/01/08 04:49:18;;;;;;;;;4.50;1.75;;;;;;;;5004137;28;11661;-75
2022/01/08 04:51:45;;;;;;;;;0.25;0.25;;;;;;;;5003296;28;11680;-75
2022/01/08 04:54:14;;;;;;;;;3.00;1.75;;;;;;;;5005388;28;11558;-77
2022/01/08 04:56:42;;;;;;;;;4.00;4.00;;;;;;;;5002821;28;11546;-76
2022/01/08 04:59:09;;;;;;;;;4.00;4.00;;;;;;;;5004981;28;11661;-77
2022/01/08 05:01:36;;;;;;;;;3.50;3.50;;;;;;;;5005468;28;11533;-77
2022/01/08 05:04:05;;;;;;;;;4.00;4.00;;;;;;;;5004870;28;12346;-75
2022/01/08 05:06:33;;;;;;;;;3.00;3.00;;;;;;;;5004166;28;11704;-78
2022/01/08 05:09:00;;;;;;;;;4.25;2.00;;;;;;;;5003370;28;11567;-78
2022/01/08 05:11:29;;;;;;;;;4.50;4.00;;;;;;;;5004011;28;12988;-76
2022/01/08 05:13:58;;;;;;;;;2.00;2.00;;;;;;;;5001538;28;11673;-77
2022/01/08 05:16:28;;;;;;;;;3.00;3.00;;;;;;;;5009170;28;11554;-75
2022/01/08 05:18:56;;;;;;;;;3.50;3.50;;;;;;;;5002242;28;11550;-76
2022/01/08 05:21:25;;;;;;;;;5.00;3.50;;;;;;;;5003481;28;11655;-76
2022/01/08 05:23:53;;;;;;;;;1.25;1.25;;;;;;;;5003578;28;11558;-75
2022/01/08 05:26:21;;;;;;;;;4.25;2.00;;;;;;;;5001984;28;11574;-76
2022/01/08 05:28:50;;;;;;;;;2.00;2.00;;;;;;;;5004188;28;11676;-77
2022/01/08 05:31:18;;;;;;;;;2.00;2.00;;;;;;;;4999790;28;11530;-77
2022/01/08 05:33:45;;;;;;;;;3.00;3.00;;;;;;;;5004509;28;11586;-76
2022/01/08 05:36:13;;;;;;;;;1.00;1.00;;;;;;;;5001842;28;11595;-76
2022/01/08 05:38:40;;;;;;;;;2.00;2.00;;;;;;;;5003917;28;11557;-75
2022/01/08 05:41:07;;;;;;;;;1.75;1.75;;;;;;;;5003041;28;11530;-76
2022/01/08 05:43:35;;;;;;;;;1.25;1.25;;;;;;;;5002511;28;11631;-76
2022/01/08 05:46:04;;;;;;;;;4.25;4.25;;;;;;;;5001623;28;11545;-78
2022/01/08 05:48:31;;;;;;;;;4.75;3.00;;;;;;;;5002931;28;11591;-78
2022/01/08 05:50:59;;;;;;;;;3.50;3.50;;;;;;;;4999050;28;11616;-78
2022/01/08 05:53:26;;;;;;;;;2.00;2.00;;;;;;;;5000471;28;11557;-78
2022/01/08 05:55:53;;;;;;;;;4.75;2.00;;;;;;;;4999735;28;11566;-75
2022/01/08 05:58:21;;;;;;;;;2.00;2.00;;;;;;;;5003290;28;11597;-78
2022/01/08 06:00:48;;;;;;;;;2.00;2.00;;;;;;;;5002374;28;11525;-76
2022/01/08 06:03:19;;;;;;;;;5.00;5.00;;;;;;;;5003541;28;11550;-76
2022/01/08 06:05:46;;;;;;;;;8.25;8.25;;;;;;;;5005641;28;11681;-76
2022/01/08 06:08:14;;;;;;;;;2.00;2.00;;;;;;;;5003740;28;12532;-75
2022/01/08 06:10:41;;;;;;;;;4.75;2.00;;;;;;;;5001738;28;11552;-75
2022/01/08 06:13:09;;;;;;;;;4.25;4.25;;;;;;;;5003490;28;11625;-77
2022/01/08 06:15:36;;;;;;;;;2.00;2.00;;;;;;;;5001976;28;11718;-77
2022/01/08 06:18:03;;;;;;;;;1.50;1.50;;;;;;;;5002169;28;11561;-75
2022/01/08 06:20:32;;;;;;;;;2.00;2.00;;;;;;;;5002893;28;11580;-77
2022/01/08 06:22:59;;;;;;;;;5.50;4.00;;;;;;;;5004400;28;11549;-77
2022/01/08 06:25:26;;;;;;;;;1.00;1.00;;;;;;;;5002991;28;11636;-77
2022/01/08 06:27:55;;;;;;;;;2.00;2.00;;;;;;;;5001625;28;11564;-76
2022/01/08 06:30:22;;;;;;;;;4.75;3.00;;;;;;;;5002867;28;11652;-77
2022/01/08 06:32:49;;;;;;;;;6.00;6.00;;;;;;;;5002011;28;11554;-76
2022/01/08 06:35:17;;;;;;;;;5.00;5.00;;;;;;;;5002611;28;11552;-75
2022/01/08 06:37:45;;;;;;;;;5.25;5.25;;;;;;;;5002621;28;11555;-75
2022/01/08 06:40:14;;;;;;;;;5.00;5.00;;;;;;;;4989554;28;11563;-75
2022/01/08 06:42:41;;;;;;;;;4.00;4.00;;;;;;;;5005703;28;11559;-75
2022/01/08 06:45:09;;;;;;;;;8.75;7.00;;;;;;;;5005835;28;11639;-75
2022/01/08 06:47:37;;;;;;;;;5.75;5.00;;;;;;;;5005098;28;11655;-76
2022/01/08 06:50:05;;;;;;;;;1.00;1.00;;;;;;;;5002176;28;11591;-75
2022/01/08 06:52:34;;;;;;;;;3.50;2.50;;;;;;;;5006410;28;11650;-76
2022/01/08 06:55:02;;;;;;;;;4.00;4.00;;;;;;;;5003325;28;11553;-75
2022/01/08 06:57:30;;;;;;;;;4.50;4.50;;;;;;;;5005731;28;11049;-75
2022/01/08 06:59:57;;;;;;;;;6.50;6.50;;;;;;;;5002746;28;11028;-75
2022/01/08 07:02:25;;;;;;;;;4.00;4.00;;;;;;;;5004572;28;11512;-75
2022/01/08 07:04:52;;;;;;;;;4.75;4.75;;;;;;;;5005849;28;11575;-75
2022/01/08 07:07:20;;;;;;;;;10.50;10.50;;;;;;;;5005717;28;11705;-77
2022/01/08 07:09:48;;;;;;;;;11.75;9.75;;;;;;;;5004345;28;11705;-77
2022/01/08 07:12:16;;;;;;;;;9.00;9.00;;;;;;;;5013529;28;11667;-76
2022/01/08 07:14:43;;;;;;;;;5.75;5.25;;;;;;;;5002547;28;11545;-77
2022/01/08 07:17:11;;;;;;;;;6.50;6.00;;;;;;;;4999743;28;12408;-77
2022/01/08 07:19:38;;;;;;;;;7.50;7.50;;;;;;;;5005251;28;11551;-75
2022/01/08 07:22:05;;;;;;;;;5.75;5.00;;;;;;;;5005464;28;11561;-77
2022/01/08 07:24:33;;;;;;;;;5.50;4.00;;;;;;;;5003715;28;11585;-82
2022/01/08 07:27:01;;;;;;;;;5.25;2.00;;;;;;;;5015395;28;11697;-84
2022/01/08 07:29:29;;;;;;;;;6.00;4.00;;;;;;;;5004169;28;11640;-85
2022/01/08 07:31:57;;;;;;;;;4.00;4.00;;;;;;;;5006259;28;11505;-79
2022/01/08 07:34:27;;;;;;;;;5.75;5.00;;;;;;;;5005392;28;11551;-76
2022/01/08 07:36:54;;;;;;;;;8.00;7.50;;;;;;;;4988698;28;12425;-83
2022/01/08 07:39:24;;;;;;;;;5.00;5.00;;;;;;;;5006372;28;12286;-79
2022/01/08 07:41:51;;;;;;;;;7.50;7.00;;;;;;;;5006743;28;12315;-85
2022/01/08 07:44:18;;;;;;;;;10.75;8.50;;;;;;;;5005240;28;11601;-85
2022/01/08 07:46:47;;;;;;;;;9.75;5.00;;;;;;;;5003473;28;11070;-87
2022/01/08 07:49:14;;;;;;;;;6.00;6.00;;;;;;;;5005885;28;11626;-88
2022/01/08 07:51:42;;;;;;;;;8.50;5.75;;;;;;;;5003531;28;11672;-81
2022/01/08 07:54:09;;;;;;;;;9.25;8.00;;;;;;;;5005556;28;11657;-81
2022/01/08 07:56:37;;;;;;;;;8.00;8.00;;;;;;;;5005974;28;11691;-82
2022/01/08 07:59:05;;;;;;;;;6.00;6.00;;;;;;;;5003399;28;11699;-87
2022/01/08 08:01:32;;;;;;;;;5.50;5.00;;;;;;;;5005992;28;11522;-89
2022/01/08 08:04:01;;;;;;;;;6.50;6.50;;;;;;;;5003462;28;11678;-92
2022/01/08 08:06:28;;;;;;;;;8.00;8.00;;;;;;;;5004341;28;12340;-79
2022/01/08 08:08:55;;;;;;;;;8.50;8.50;;;;;;;;5004313;28;11550;-87
2022/01/08 08:11:23;;;;;;;;;7.50;7.50;;;;;;;;5004936;28;11572;-91
2022/01/08 08:13:50;;;;;;;;;8.25;6.00;;;;;;;;5001642;28;11590;-90
2022/01/08 08:16:20;;;;;;;;;6.00;6.00;;;;;;;;5001122;28;11576;-91
2022/01/08 08:18:48;;;;;;;;;9.00;6.00;;;;;;;;5003356;28;11537;-81
2022/01/08 08:21:17;;;;;;;;;10.75;9.00;;;;;;;;5009991;28;11578;-91
2022/01/08 08:23:45;;;;;;;;;15.00;12.00;;;;;;;;5007733;28;11668;-92
2022/01/08 08:26:13;;;;;;;;;8.50;8.25;;;;;;;;5004840;28;11593;-79
2022/01/08 08:28:41;;;;;;;;;12.25;12.25;;;;;;;;5010997;28;11577;-84
2022/01/08 08:31:11;;;;;;;;;12.00;8.00;;;;;;;;5006806;28;11562;-92
2022/01/08 08:33:38;;;;;;;;;14.00;14.00;;;;;;;;5006918;28;11537;-88
2022/01/08 08:36:06;;;;;;;;;14.00;11.75;;;;;;;;5002998;28;12929;-79
2022/01/08 08:38:35;;;;;;;;;6.75;6.75;;;;;;;;5001681;28;11605;-75
2022/01/08 08:41:02;;;;;;;;;19.25;15.25;;;;;;;;5002808;28;11570;-75
2022/01/08 08:43:29;;;;;;;;;13.50;11.00;;;;;;;;5002273;28;11633;-76
2022/01/08 08:45:57;;;;;;;;;9.00;9.00;;;;;;;;5002462;28;11738;-77
2022/01/08 08:48:24;;;;;;;;;9.00;8.25;;;;;;;;5002045;28;11569;-76
2022/01/08 08:50:51;;;;;;;;;9.00;9.00;;;;;;;;5000889;28;11578;-83
2022/01/08 08:53:19;;;;;;;;;9.00;8.00;;;;;;;;5005441;28;11561;-78
2022/01/08 08:55:50;;;;;;;;;8.00;8.00;;;;;;;;5001389;28;11576;-80
2022/01/08 08:58:17;;;;;;;;;7.25;6.00;;;;;;;;5002456;28;11579;-78
2022/01/08 09:00:44;;;;;;;;;6.00;6.00;;;;;;;;5000461;28;11511;-75
2022/01/08 09:03:16;;;;;;;;;6.00;3.25;;;;;;;;5002881;28;11556;-76
2022/01/08 09:05:43;;;;;;;;;9.50;5.00;;;;;;;;5001391;28;11560;-75
2022/01/08 09:08:11;;;;;;;;;5.75;5.75;;;;;;;;5001563;28;11567;-75
2022/01/08 09:10:39;;;;;;;;;4.75;4.75;;;;;;;;4995182;28;11536;-76
2022/01/08 09:13:08;;;;;;;;;4.50;4.50;;;;;;;;4995225;28;11545;-75
2022/01/08 09:15:40;;;;;;;;;4.75;4.75;;;;;;;;4999654;28;11544;-78
2022/01/08 09:18:08;;;;;;;;;4.75;4.75;;;;;;;;4993707;28;12475;-77
2022/01/08 09:20:36;;;;;;;;;5.00;5.00;;;;;;;;5002533;28;12429;-77
2022/01/08 09:23:04;;;;;;;;;7.00;5.00;;;;;;;;4999618;28;12364;-77
2022/01/08 09:25:31;;;;;;;;;5.50;4.00;;;;;;;;5001762;28;11540;-77
2022/01/08 09:27:58;;;;;;;;;7.50;7.50;;;;;;;;5001069;28;11602;-76
2022/01/08 09:30:28;;;;;;;;;5.75;5.75;;;;;;;;4998521;28;11479;-77
2022/01/08 09:32:55;;;;;;;;;6.75;6.00;;;;;;;;5003004;28;11588;-78
2022/01/08 09:35:25;;;;;;;;;10.00;8.50;;;;;;;;5001633;28;11574;-77
2022/01/08 09:37:53;;;;;;;;;5.00;5.00;;;;;;;;4984965;28;11705;-77
2022/01/08 09:40:23;;;;;;;;;7.50;6.00;;;;;;;;5000706;28;11548;-77
2022/01/08 09:42:51;;;;;;;;;8.00;8.00;;;;;;;;4986196;28;11668;-77
2022/01/08 09:45:19;;;;;;;;;6.00;6.00;;;;;;;;5006187;28;11558;-77
2022/01/08 09:47:48;;;;;;;;;11.75;9.00;;;;;;;;5002738;28;11653;-77
2022/01/08 09:50:15;;;;;;;;;9.75;8.00;;;;;;;;5002382;28;11704;-77
2022/01/08 09:52:43;;;;;;;;;6.00;6.00;;;;;;;;4995771;28;11597;-77
2022/01/08 09:55:11;;;;;;;;;5.25;5.25;;;;;;;;4999282;28;11554;-77
2022/01/08 09:57:38;;;;;;;;;6.00;6.00;;;;;;;;4999495;28;11722;-77
2022/01/08 10:00:12;;;;;;;;;9.00;8.00;;;;;;;;4995159;28;11556;-77
2022/01/08 10:02:39;;;;;;;;;18.50;18.25;;;;;;;;4998649;28;11648;-77
2022/01/08 10:05:12;;;;;;;;;12.50;9.50;;;;;;;;4997885;28;11621;-76
2022/01/08 10:07:41;;;;;;;;;12.50;11.25;;;;;;;;4996314;28;11678;-78
2022/01/08 10:10:12;;;;;;;;;5.50;5.50;;;;;;;;4999028;28;11617;-76
2022/01/08 10:12:46;;;;;;;;;13.50;9.00;;;;;;;;5005679;28;11507;-77
2022/01/08 10:18:02;;;;;;;;;7.50;7.00;;;;;;;;5007404;28;12217;-76
2022/01/08 10:20:33;;;;;;;;;17.75;8.25;;;;;;;;5004215;28;12450;-74
2022/01/08 10:23:18;;;;;;;;;17.50;10.25;;;;;;;;5003730;28;11547;-74
2022/01/08 10:25:57;;;;;;;;;8.75;8.75;;;;;;;;5006212;28;11620;-75
2022/01/08 10:28:38;;;;;;;;;9.00;7.75;;;;;;;;5006257;28;11465;-76
2022/01/08 10:31:14;;;;;;;;;9.50;8.25;;;;;;;;5003488;28;11508;-76
2022/01/08 10:33:43;;;;;;;;;5.25;5.25;;;;;;;;5005085;28;11561;-78
2022/01/08 10:36:14;;;;;;;;;9.00;9.00;;;;;;;;5005802;28;11528;-79
2022/01/08 10:38:42;;;;;;;;;8.00;8.00;;;;;;;;5008465;28;11503;-81
2022/01/08 10:41:16;;;;;;;;;8.75;7.00;;;;;;;;5005395;28;11655;-82
2022/01/08 10:43:45;;;;;;;;;6.00;4.50;;;;;;;;5007438;28;12303;-80
2022/01/08 10:46:14;;;;;;;;;7.25;7.25;;;;;;;;5007166;28;12087;-79
2022/01/08 10:48:45;;;;;;;;;8.00;8.00;;;;;;;;5008383;28;11592;-78
2022/01/08 10:51:34;;;;;;;;;13.00;10.00;;;;;;;;5008003;28;11724;-79
2022/01/08 10:54:06;;;;;;;;;14.25;13.50;;;;;;;;5002474;28;12499;-78
2022/01/08 10:56:36;;;;;;;;;7.75;7.75;;;;;;;;5014174;28;12353;-79
2022/01/08 10:59:07;;;;;;;;;9.75;9.75;;;;;;;;5009892;28;11498;-79
2022/01/08 11:01:40;;;;;;;;;9.00;7.75;;;;;;;;5009483;28;11462;-77
2022/01/08 11:04:08;;;;;;;;;14.25;8.50;;;;;;;;5009768;28;11737;-78
2022/01/08 11:07:00;;;;;;;;;11.75;10.75;;;;;;;;5010367;28;11554;-78
2022/01/08 11:09:28;;;;;;;;;19.00;15.00;;;;;;;;5012019;28;11529;-78
2022/01/08 11:11:57;;;;;;;;;12.25;10.25;;;;;;;;5015407;28;11533;-79
2022/01/08 11:15:01;;;;;;;;;10.00;10.00;;;;;;;;5023592;28;11557;-79
2022/01/08 11:17:32;;;;;;;;;15.25;13.00;;;;;;;;5009715;28;11494;-77
2022/01/08 11:20:02;;;;;;;;;10.00;10.00;;;;;;;;5010638;28;11568;-77
2022/01/08 11:22:33;;;;;;;;;14.50;9.25;;;;;;;;4993728;28;11567;-78
2022/01/08 11:25:06;;;;;;;;;8.75;6.00;;;;;;;;5006149;28;11678;-80
2022/01/08 11:27:42;;;;;;;;;12.00;12.00;;;;;;;;5008603;28;11509;-79
2022/01/08 11:30:17;;;;;;;;;20.75;14.25;;;;;;;;5016295;28;11528;-80
2022/01/08 11:32:45;;;;;;;;;12.25;12.25;;;;;;;;5007209;28;11566;-78
2022/01/08 11:35:14;;;;;;;;;15.25;11.00;;;;;;;;5007428;28;11677;-77
2022/01/08 11:37:46;;;;;;;;;10.00;7.00;;;;;;;;5001248;28;11629;-78
2022/01/08 11:40:16;;;;;;;;;9.75;9.75;;;;;;;;5007537;28;11628;-81
2022/01/08 11:42:44;;;;;;;;;16.75;12.50;;;;;;;;5005526;28;11613;-78
2022/01/08 11:45:16;;;;;;;;;11.50;11.50;;;;;;;;5017897;28;11554;-77
2022/01/08 11:47:46;;;;;;;;;16.25;12.50;;;;;;;;5006499;28;11539;-78
2022/01/08 11:50:14;;;;;;;;;11.50;10.25;;;;;;;;5007587;28;11544;-78
2022/01/08 11:52:43;;;;;;;;;12.50;10.00;;;;;;;;5001045;28;11673;-78
2022/01/08 11:55:12;;;;;;;;;9.75;9.75;;;;;;;;5007621;28;12149;-78
2022/01/08 11:57:39;;;;;;;;;10.50;10.50;;;;;;;;5006830;28;11534;-77
2022/01/08 12:00:09;;;;;;;;;11.00;11.00;;;;;;;;5005639;28;11562;-78
2022/01/08 12:02:39;;;;;;;;;11.50;11.00;;;;;;;;5006928;28;11357;-78
2022/01/08 12:05:08;;;;;;;;;9.50;9.50;;;;;;;;5006646;28;11532;-78
2022/01/08 12:07:40;;;;;;;;;7.00;7.00;;;;;;;;5005339;28;11264;-79
2022/01/08 12:10:20;;;;;;;;;5.00;5.00;;;;;;;;5005779;28;11169;-79
2022/01/08 12:12:53;;;;;;;;;5.75;5.75;;;;;;;;5006444;28;11973;-77
2022/01/08 12:15:48;;;;;;;;;7.00;4.00;;;;;;;;5006433;28;11041;-77
2022/01/08 12:18:17;;;;;;;;;6.25;5.00;;;;;;;;5004110;28;11031;-78
2022/01/08 12:20:50;;;;;;;;;5.00;5.00;;;;;;;;5012440;28;10869;-78
2022/01/08 12:23:30;;;;;;;;;10.25;5.00;;;;;;;;5004882;28;10873;-77
2022/01/08 12:26:02;;;;;;;;;3.00;3.00;;;;;;;;5008337;28;11102;-78
2022/01/08 12:28:53;;;;;;;;;11.00;4.75;;;;;;;;5006108;28;10801;-79
2022/01/08 12:31:26;;;;;;;;;5.75;4.00;;;;;;;;5005011;28;10748;-80
2022/01/08 12:34:18;;;;;;;;;6.75;3.00;;;;;;;;5006406;28;10679;-78
2022/01/08 12:36:58;;;;;;;;;2.50;2.50;;;;;;;;5004144;28;10799;-78
2022/01/08 12:39:26;;;;;;;;;10.50;4.00;;;;;;;;5005737;28;10846;-79
2022/01/08 12:42:33;;;;;;;;;6.00;3.00;;;;;;;;5005888;28;10740;-78
2022/01/08 12:45:04;;;;;;;;;2.00;2.00;;;;;;;;5014644;28;10838;-79
2022/01/08 12:47:43;;;;;;;;;2.50;2.00;;;;;;;;5004489;28;10862;-79
2022/01/08 12:50:19;;;;;;;;;4.50;2.50;;;;;;;;5007640;28;10777;-78
2022/01/08 12:53:26;;;;;;;;;1.00;1.00;;;;;;;;4999500;28;10660;-79
2022/01/08 12:56:12;;;;;;;;;2.00;2.00;;;;;;;;5002466;28;10704;-79
2022/01/08 12:58:51;;;;;;;;;3.00;3.00;;;;;;;;5004975;28;10671;-78
2022/01/08 13:01:23;;;;;;;;;2.00;2.00;;;;;;;;5004487;28;11553;-78
2022/01/08 13:03:53;;;;;;;;;6.75;2.25;;;;;;;;5005629;28;10945;-78
2022/01/08 13:06:30;;;;;;;;;2.25;2.25;;;;;;;;5004921;28;10715;-79
2022/01/08 13:08:59;;;;;;;;;2.00;2.00;;;;;;;;5005563;28;10874;-77
2022/01/08 13:11:29;;;;;;;;;3.50;2.50;;;;;;;;5004641;28;10725;-78
2022/01/08 13:14:00;;;;;;;;;5.75;3.00;;;;;;;;5005531;28;10668;-77
2022/01/08 13:16:30;;;;;;;;;5.50;3.00;;;;;;;;5005029;28;10784;-79
2022/01/08 13:18:59;;;;;;;;;5.75;5.75;;;;;;;;5005492;28;11071;-79
2022/01/08 13:21:30;;;;;;;;;4.50;4.50;;;;;;;;5004920;28;10784;-79
2022/01/08 13:23:59;;;;;;;;;2.50;2.50;;;;;;;;4993008;28;10871;-78
2022/01/08 13:26:36;;;;;;;;;3.00;3.00;;;;;;;;5005262;28;10792;-78
2022/01/08 13:29:20;;;;;;;;;5.75;5.75;;;;;;;;5010472;28;10825;-78
2022/01/08 13:31:49;;;;;;;;;4.75;4.00;;;;;;;;5004804;28;10802;-78
2022/01/08 13:34:17;;;;;;;;;4.00;3.00;;;;;;;;5004105;28;10779;-78
2022/01/08 13:36:57;;;;;;;;;1.75;1.75;;;;;;;;5004197;28;10712;-78
2022/01/08 13:39:42;;;;;;;;;3.50;2.00;;;;;;;;4999846;28;11790;-78
2022/01/08 13:42:20;;;;;;;;;3.00;3.00;;;;;;;;4997647;28;10807;-82
2022/01/08 13:44:52;;;;;;;;;7.50;4.50;;;;;;;;4998140;28;10766;-81
2022/01/08 13:47:31;;;;;;;;;4.50;2.00;;;;;;;;4994603;28;10743;-84
2022/01/08 13:50:01;;;;;;;;;5.75;5.75;;;;;;;;5002376;28;10623;-81
2022/01/08 13:52:35;;;;;;;;;6.00;6.00;;;;;;;;5000564;28;10635;-78
2022/01/08 13:55:18;;;;;;;;;4.00;4.00;;;;;;;;5002725;28;10711;-81
2022/01/08 13:57:47;;;;;;;;;7.25;3.00;;;;;;;;5002105;28;10726;-83
2022/01/08 14:00:21;;;;;;;;;6.75;5.75;;;;;;;;5001685;28;10794;-76
2022/01/08 14:02:49;;;;;;;;;2.00;2.00;;;;;;;;5002467;28;10870;-75
2022/01/08 14:05:17;;;;;;;;;8.00;6.00;;;;;;;;5003201;28;11511;-75
2022/01/08 14:07:45;;;;;;;;;3.00;2.00;;;;;;;;4999796;28;10731;-76
2022/01/08 14:10:14;;;;;;;;;8.50;6.25;;;;;;;;5002672;28;11504;-77
2022/01/08 14:12:44;;;;;;;;;6.00;3.00;;;;;;;;4991538;28;10792;-78
2022/01/08 14:15:27;;;;;;;;;2.50;2.00;;;;;;;;5000107;28;10778;-79
2022/01/08 14:17:55;;;;;;;;;5.75;4.50;;;;;;;;4999416;28;10878;-77
2022/01/08 14:20:25;;;;;;;;;6.50;5.00;;;;;;;;5000030;28;10788;-80
2022/01/08 14:22:52;;;;;;;;;3.00;2.25;;;;;;;;4996411;28;10733;-77
2022/01/08 14:25:20;;;;;;;;;6.50;3.00;;;;;;;;5000098;28;10661;-79
2022/01/08 14:27:47;;;;;;;;;7.25;5.25;;;;;;;;5000986;28;10745;-77
2022/01/08 14:30:16;;;;;;;;;3.50;3.50;;;;;;;;4999932;28;10817;-79
2022/01/08 14:32:45;;;;;;;;;3.00;3.00;;;;;;;;4999976;28;10761;-77
2022/01/08 14:35:12;;;;;;;;;4.50;3.00;;;;;;;;5002036;28;10719;-77
2022/01/08 14:37:45;;;;;;;;;6.75;5.25;;;;;;;;4999992;28;10738;-77
2022/01/08 14:40:19;;;;;;;;;7.50;5.50;;;;;;;;5000775;28;10786;-79
2022/01/08 14:42:55;;;;;;;;;5.50;3.00;;;;;;;;4999504;28;10810;-76
2022/01/08 14:45:22;;;;;;;;;6.00;6.00;;;;;;;;4997850;28;10750;-78
2022/01/08 14:47:51;;;;;;;;;4.50;3.00;;;;;;;;4997409;28;10962;-77
2022/01/08 14:50:20;;;;;;;;;4.75;3.25;;;;;;;;5001524;28;10803;-79
2022/01/08 14:52:48;;;;;;;;;3.00;3.00;;;;;;;;4997455;28;10734;-79
2022/01/08 14:55:18;;;;;;;;;5.00;2.75;;;;;;;;5000228;28;10582;-79
2022/01/08 14:57:46;;;;;;;;;1.25;1.25;;;;;;;;4999880;28;10489;-80
2022/01/08 15:00:15;;;;;;;;;2.00;2.00;;;;;;;;5002245;28;10555;-81
2022/01/08 15:02:44;;;;;;;;;5.00;5.00;;;;;;;;5002914;28;10497;-79
2022/01/08 15:05:14;;;;;;;;;2.25;2.25;;;;;;;;5001992;28;10697;-79
2022/01/08 15:07:41;;;;;;;;;4.00;2.00;;;;;;;;5007236;28;10614;-79
2022/01/08 15:10:10;;;;;;;;;4.50;3.00;;;;;;;;5004210;28;10604;-79
2022/01/08 15:12:38;;;;;;;;;5.75;2.75;;;;;;;;5003530;28;10521;-78